sensor_id;sensor_type;location;lat;lon;timestamp;P1;durP1;ratioP1;P2;durP2;ratioP2
74689;SDS011;63221;51.860;-2.188;2023-02-15T00:01:14;20.77;;;8.87;;
74689;SDS011;63221;51.860;-2.188;2023-02-15T00:03:39;18.92;;;9.98;;
74689;SDS011;63221;51.860;-2.188;2023-02-15T00:06:05;20.20;;;9.53;;
74689;SDS011;63221;51.860;-2.188;2023-02-15T00:08:31;21.60;;;9.10;;
74689;SDS011;63221;51.860;-2.188;2023-02-15T00:11:06;18.23;;;8.55;;
74689;SDS011;63221;51.860;-2.188;2023-02-15T00:13:33;16.65;;;8.63;;
74689;SDS011;63221;51.860;-2.188;2023-02-15T00:16:03;18.80;;;8.77;;
74689;SDS011;63221;51.860;-2.188;2023-02-15T00:18:30;19.48;;;8.45;;
74689;SDS011;63221;51.860;-2.188;2023-02-15T00:20:55;19.17;;;8.95;;
74689;SDS011;63221;51.860;-2.188;2023-02-15T00:23:21;18.63;;;9.17;;
74689;SDS011;63221;51.860;-2.188;2023-02-15T00:25:47;17.73;;;8.47;;
74689;SDS011;63221;51.860;-2.188;2023-02-15T00:28:12;18.50;;;9.43;;
74689;SDS011;63221;51.860;-2.188;2023-02-15T00:30:37;18.00;;;9.27;;
74689;SDS011;63221;51.860;-2.188;2023-02-15T00:33:03;16.23;;;8.00;;
74689;SDS011;63221;51.860;-2.188;2023-02-15T00:35:28;18.80;;;9.07;;
74689;SDS011;63221;51.860;-2.188;2023-02-15T00:37:55;22.13;;;9.80;;
74689;SDS011;63221;51.860;-2.188;2023-02-15T00:40:21;20.65;;;8.50;;
74689;SDS011;63221;51.860;-2.188;2023-02-15T00:42:46;20.00;;;9.37;;
74689;SDS011;63221;51.860;-2.188;2023-02-15T00:45:11;18.10;;;8.63;;
74689;SDS011;63221;51.860;-2.188;2023-02-15T00:47:37;22.33;;;10.17;;
74689;SDS011;63221;51.860;-2.188;2023-02-15T00:50:02;22.57;;;9.13;;
74689;SDS011;63221;51.860;-2.188;2023-02-15T00:52:28;19.65;;;10.13;;
74689;SDS011;63221;51.860;-2.188;2023-02-15T00:54:53;20.83;;;9.93;;
74689;SDS011;63221;51.860;-2.188;2023-02-15T00:57:19;19.20;;;9.40;;
74689;SDS011;63221;51.860;-2.188;2023-02-15T00:59:44;18.80;;;9.70;;
74689;SDS011;63221;51.860;-2.188;2023-02-15T01:02:10;22.83;;;10.23;;
74689;SDS011;63221;51.860;-2.188;2023-02-15T01:04:35;21.70;;;9.80;;
74689;SDS011;63221;51.860;-2.188;2023-02-15T01:07:00;20.50;;;10.23;;
74689;SDS011;63221;51.860;-2.188;2023-02-15T01:09:27;23.23;;;10.95;;
74689;SDS011;63221;51.860;-2.188;2023-02-15T01:11:53;21.57;;;9.73;;
74689;SDS011;63221;51.860;-2.188;2023-02-15T01:14:18;23.60;;;9.93;;
74689;SDS011;63221;51.860;-2.188;2023-02-15T01:16:44;20.92;;;10.10;;
74689;SDS011;63221;51.860;-2.188;2023-02-15T01:19:09;20.27;;;10.00;;
74689;SDS011;63221;51.860;-2.188;2023-02-15T01:21:35;21.33;;;10.47;;
74689;SDS011;63221;51.860;-2.188;2023-02-15T01:24:00;20.02;;;10.48;;
74689;SDS011;63221;51.860;-2.188;2023-02-15T01:26:26;23.07;;;11.07;;
74689;SDS011;63221;51.860;-2.188;2023-02-15T01:28:51;23.70;;;10.82;;
74689;SDS011;63221;51.860;-2.188;2023-02-15T01:31:19;21.70;;;10.73;;
74689;SDS011;63221;51.860;-2.188;2023-02-15T01:33:46;23.60;;;11.40;;
74689;SDS011;63221;51.860;-2.188;2023-02-15T01:36:12;23.77;;;10.80;;
74689;SDS011;63221;51.860;-2.188;2023-02-15T01:38:37;22.85;;;11.05;;
74689;SDS011;63221;51.860;-2.188;2023-02-15T01:41:04;22.58;;;11.68;;
74689;SDS011;63221;51.860;-2.188;2023-02-15T01:43:48;25.27;;;11.37;;
74689;SDS011;63221;51.860;-2.188;2023-02-15T01:46:16;23.60;;;11.75;;
74689;SDS011;63221;51.860;-2.188;2023-02-15T01:48:44;24.52;;;13.13;;
74689;SDS011;63221;51.860;-2.188;2023-02-15T01:51:12;27.42;;;13.43;;
74689;SDS011;63221;51.860;-2.188;2023-02-15T01:53:43;23.67;;;10.90;;
74689;SDS011;63221;51.860;-2.188;2023-02-15T01:56:23;28.90;;;12.73;;
74689;SDS011;63221;51.860;-2.188;2023-02-15T01:58:51;29.13;;;13.18;;
74689;SDS011;63221;51.860;-2.188;2023-02-15T02:01:18;27.67;;;13.50;;
74689;SDS011;63221;51.860;-2.188;2023-02-15T02:06:37;24.42;;;12.15;;
74689;SDS011;63221;51.860;-2.188;2023-02-15T02:09:03;21.40;;;10.60;;
74689;SDS011;63221;51.860;-2.188;2023-02-15T02:11:28;24.17;;;12.07;;
74689;SDS011;63221;51.860;-2.188;2023-02-15T02:13:54;22.13;;;10.67;;
74689;SDS011;63221;51.860;-2.188;2023-02-15T02:18:52;21.43;;;10.90;;
74689;SDS011;63221;51.860;-2.188;2023-02-15T02:26:36;25.90;;;12.27;;
74689;SDS011;63221;51.860;-2.188;2023-02-15T02:32:01;25.60;;;13.80;;
74689;SDS011;63221;51.860;-2.188;2023-02-15T02:34:42;30.02;;;13.25;;
74689;SDS011;63221;51.860;-2.188;2023-02-15T02:42:30;27.00;;;14.10;;
74689;SDS011;63221;51.860;-2.188;2023-02-15T02:45:01;28.85;;;15.45;;
74689;SDS011;63221;51.860;-2.188;2023-02-15T02:47:30;31.45;;;15.90;;
74689;SDS011;63221;51.860;-2.188;2023-02-15T02:50:15;38.67;;;15.30;;
74689;SDS011;63221;51.860;-2.188;2023-02-15T02:52:46;28.88;;;14.55;;
74689;SDS011;63221;51.860;-2.188;2023-02-15T02:57:52;33.53;;;17.50;;
74689;SDS011;63221;51.860;-2.188;2023-02-15T03:00:18;34.35;;;16.40;;
74689;SDS011;63221;51.860;-2.188;2023-02-15T03:02:44;32.50;;;15.40;;
74689;SDS011;63221;51.860;-2.188;2023-02-15T03:05:18;38.28;;;17.23;;
74689;SDS011;63221;51.860;-2.188;2023-02-15T03:07:46;37.78;;;15.95;;
74689;SDS011;63221;51.860;-2.188;2023-02-15T03:10:15;39.95;;;19.80;;
74689;SDS011;63221;51.860;-2.188;2023-02-15T03:12:41;31.50;;;16.23;;
74689;SDS011;63221;51.860;-2.188;2023-02-15T03:15:09;33.47;;;16.90;;
74689;SDS011;63221;51.860;-2.188;2023-02-15T03:17:37;32.47;;;14.67;;
74689;SDS011;63221;51.860;-2.188;2023-02-15T03:20:30;31.75;;;15.30;;
74689;SDS011;63221;51.860;-2.188;2023-02-15T03:22:59;30.05;;;14.82;;
74689;SDS011;63221;51.860;-2.188;2023-02-15T03:25:28;37.80;;;17.55;;
74689;SDS011;63221;51.860;-2.188;2023-02-15T03:28:02;36.42;;;15.82;;
74689;SDS011;63221;51.860;-2.188;2023-02-15T03:30:30;38.73;;;17.97;;
74689;SDS011;63221;51.860;-2.188;2023-02-15T03:32:56;38.33;;;19.20;;
74689;SDS011;63221;51.860;-2.188;2023-02-15T03:35:24;36.78;;;17.10;;
74689;SDS011;63221;51.860;-2.188;2023-02-15T03:37:52;36.53;;;18.40;;
74689;SDS011;63221;51.860;-2.188;2023-02-15T03:40:26;39.67;;;18.75;;
74689;SDS011;63221;51.860;-2.188;2023-02-15T03:43:29;32.60;;;17.17;;
74689;SDS011;63221;51.860;-2.188;2023-02-15T03:46:01;42.30;;;18.65;;
74689;SDS011;63221;51.860;-2.188;2023-02-15T03:49:25;42.92;;;19.15;;
74689;SDS011;63221;51.860;-2.188;2023-02-15T03:51:40;44.80;;;19.30;;
74689;SDS011;63221;51.860;-2.188;2023-02-15T03:54:15;39.35;;;19.48;;
74689;SDS011;63221;51.860;-2.188;2023-02-15T03:57:06;36.17;;;18.00;;
74689;SDS011;63221;51.860;-2.188;2023-02-15T04:05:24;49.35;;;21.50;;
74689;SDS011;63221;51.860;-2.188;2023-02-15T04:07:49;42.30;;;21.00;;
74689;SDS011;63221;51.860;-2.188;2023-02-15T04:10:15;45.25;;;21.60;;
74689;SDS011;63221;51.860;-2.188;2023-02-15T04:12:59;39.07;;;18.33;;
74689;SDS011;63221;51.860;-2.188;2023-02-15T04:15:24;42.85;;;21.05;;
74689;SDS011;63221;51.860;-2.188;2023-02-15T04:18:08;47.00;;;21.43;;
74689;SDS011;63221;51.860;-2.188;2023-02-15T04:20:34;45.10;;;19.50;;
74689;SDS011;63221;51.860;-2.188;2023-02-15T04:23:18;41.88;;;21.08;;
74689;SDS011;63221;51.860;-2.188;2023-02-15T04:26:04;40.63;;;19.50;;
74689;SDS011;63221;51.860;-2.188;2023-02-15T04:28:30;42.60;;;19.83;;
74689;SDS011;63221;51.860;-2.188;2023-02-15T04:30:56;45.72;;;21.20;;
74689;SDS011;63221;51.860;-2.188;2023-02-15T04:33:21;40.90;;;20.27;;
74689;SDS011;63221;51.860;-2.188;2023-02-15T04:35:47;43.20;;;19.80;;
74689;SDS011;63221;51.860;-2.188;2023-02-15T04:38:12;38.30;;;19.07;;
74689;SDS011;63221;51.860;-2.188;2023-02-15T04:40:38;40.20;;;18.83;;
74689;SDS011;63221;51.860;-2.188;2023-02-15T04:43:03;42.50;;;19.90;;
74689;SDS011;63221;51.860;-2.188;2023-02-15T04:45:28;43.50;;;19.90;;
74689;SDS011;63221;51.860;-2.188;2023-02-15T04:47:54;38.83;;;19.08;;
74689;SDS011;63221;51.860;-2.188;2023-02-15T04:50:19;43.53;;;19.63;;
74689;SDS011;63221;51.860;-2.188;2023-02-15T04:52:45;44.00;;;21.23;;
74689;SDS011;63221;51.860;-2.188;2023-02-15T04:55:10;38.03;;;18.43;;
74689;SDS011;63221;51.860;-2.188;2023-02-15T04:57:36;43.67;;;20.98;;
74689;SDS011;63221;51.860;-2.188;2023-02-15T05:00:01;43.03;;;21.07;;
74689;SDS011;63221;51.860;-2.188;2023-02-15T05:02:26;43.47;;;19.40;;
74689;SDS011;63221;51.860;-2.188;2023-02-15T05:04:52;45.83;;;19.43;;
74689;SDS011;63221;51.860;-2.188;2023-02-15T05:07:17;45.17;;;20.02;;
74689;SDS011;63221;51.860;-2.188;2023-02-15T05:09:45;45.40;;;21.93;;
74689;SDS011;63221;51.860;-2.188;2023-02-15T05:12:10;42.10;;;20.92;;
74689;SDS011;63221;51.860;-2.188;2023-02-15T05:14:35;38.10;;;19.23;;
74689;SDS011;63221;51.860;-2.188;2023-02-15T05:17:01;40.70;;;18.53;;
74689;SDS011;63221;51.860;-2.188;2023-02-15T05:19:28;38.97;;;21.27;;
74689;SDS011;63221;51.860;-2.188;2023-02-15T05:21:53;42.40;;;20.83;;
74689;SDS011;63221;51.860;-2.188;2023-02-15T05:24:19;43.57;;;20.17;;
74689;SDS011;63221;51.860;-2.188;2023-02-15T05:27:03;44.75;;;19.98;;
74689;SDS011;63221;51.860;-2.188;2023-02-15T05:29:47;39.47;;;19.17;;
74689;SDS011;63221;51.860;-2.188;2023-02-15T05:32:13;38.43;;;17.53;;
74689;SDS011;63221;51.860;-2.188;2023-02-15T05:34:39;40.42;;;19.13;;
74689;SDS011;63221;51.860;-2.188;2023-02-15T05:37:04;39.77;;;18.63;;
74689;SDS011;63221;51.860;-2.188;2023-02-15T05:39:30;43.63;;;19.52;;
74689;SDS011;63221;51.860;-2.188;2023-02-15T05:41:57;40.37;;;18.73;;
74689;SDS011;63221;51.860;-2.188;2023-02-15T05:44:24;38.65;;;19.75;;
74689;SDS011;63221;51.860;-2.188;2023-02-15T05:46:49;41.07;;;19.47;;
74689;SDS011;63221;51.860;-2.188;2023-02-15T05:49:15;42.97;;;18.37;;
74689;SDS011;63221;51.860;-2.188;2023-02-15T05:51:40;42.53;;;18.93;;
74689;SDS011;63221;51.860;-2.188;2023-02-15T05:54:06;40.13;;;20.37;;
74689;SDS011;63221;51.860;-2.188;2023-02-15T05:56:31;42.15;;;19.52;;
74689;SDS011;63221;51.860;-2.188;2023-02-15T05:58:56;40.13;;;18.77;;
74689;SDS011;63221;51.860;-2.188;2023-02-15T06:01:22;39.17;;;19.27;;
74689;SDS011;63221;51.860;-2.188;2023-02-15T06:03:47;40.20;;;19.83;;
74689;SDS011;63221;51.860;-2.188;2023-02-15T06:06:13;37.58;;;19.60;;
74689;SDS011;63221;51.860;-2.188;2023-02-15T06:08:39;40.95;;;19.63;;
74689;SDS011;63221;51.860;-2.188;2023-02-15T06:11:05;39.97;;;19.83;;
74689;SDS011;63221;51.860;-2.188;2023-02-15T06:13:30;44.22;;;19.92;;
74689;SDS011;63221;51.860;-2.188;2023-02-15T06:15:56;38.63;;;18.20;;
74689;SDS011;63221;51.860;-2.188;2023-02-15T06:18:22;38.30;;;18.53;;
74689;SDS011;63221;51.860;-2.188;2023-02-15T06:20:48;41.63;;;19.07;;
74689;SDS011;63221;51.860;-2.188;2023-02-15T06:23:14;41.42;;;18.73;;
74689;SDS011;63221;51.860;-2.188;2023-02-15T06:25:39;45.23;;;21.57;;
74689;SDS011;63221;51.860;-2.188;2023-02-15T06:28:05;45.78;;;22.38;;
74689;SDS011;63221;51.860;-2.188;2023-02-15T06:30:31;40.50;;;21.30;;
74689;SDS011;63221;51.860;-2.188;2023-02-15T06:32:56;46.55;;;22.05;;
74689;SDS011;63221;51.860;-2.188;2023-02-15T06:35:22;48.33;;;21.27;;
74689;SDS011;63221;51.860;-2.188;2023-02-15T06:37:48;40.37;;;19.83;;
74689;SDS011;63221;51.860;-2.188;2023-02-15T06:40:13;47.63;;;24.45;;
74689;SDS011;63221;51.860;-2.188;2023-02-15T06:42:39;43.53;;;20.55;;
74689;SDS011;63221;51.860;-2.188;2023-02-15T06:45:06;45.60;;;22.17;;
74689;SDS011;63221;51.860;-2.188;2023-02-15T06:47:32;46.95;;;21.60;;
74689;SDS011;63221;51.860;-2.188;2023-02-15T06:49:57;50.23;;;22.53;;
74689;SDS011;63221;51.860;-2.188;2023-02-15T06:52:23;49.80;;;22.33;;
74689;SDS011;63221;51.860;-2.188;2023-02-15T06:54:48;46.13;;;22.38;;
74689;SDS011;63221;51.860;-2.188;2023-02-15T06:57:14;49.20;;;21.53;;
74689;SDS011;63221;51.860;-2.188;2023-02-15T06:59:39;57.70;;;25.20;;
74689;SDS011;63221;51.860;-2.188;2023-02-15T07:02:05;48.55;;;22.23;;
74689;SDS011;63221;51.860;-2.188;2023-02-15T07:04:30;49.43;;;23.23;;
74689;SDS011;63221;51.860;-2.188;2023-02-15T07:06:55;46.80;;;21.23;;
74689;SDS011;63221;51.860;-2.188;2023-02-15T07:09:21;46.20;;;22.25;;
74689;SDS011;63221;51.860;-2.188;2023-02-15T07:11:47;47.43;;;23.30;;
74689;SDS011;63221;51.860;-2.188;2023-02-15T07:14:31;49.20;;;22.08;;
74689;SDS011;63221;51.860;-2.188;2023-02-15T07:16:57;48.28;;;21.95;;
74689;SDS011;63221;51.860;-2.188;2023-02-15T07:19:22;49.33;;;23.03;;
74689;SDS011;63221;51.860;-2.188;2023-02-15T07:21:48;47.40;;;22.33;;
74689;SDS011;63221;51.860;-2.188;2023-02-15T07:24:13;48.10;;;22.63;;
74689;SDS011;63221;51.860;-2.188;2023-02-15T07:26:39;45.42;;;21.77;;
74689;SDS011;63221;51.860;-2.188;2023-02-15T07:29:04;44.70;;;21.13;;
74689;SDS011;63221;51.860;-2.188;2023-02-15T07:31:29;48.63;;;22.47;;
74689;SDS011;63221;51.860;-2.188;2023-02-15T07:33:55;42.00;;;20.87;;
74689;SDS011;63221;51.860;-2.188;2023-02-15T07:36:20;52.90;;;22.13;;
74689;SDS011;63221;51.860;-2.188;2023-02-15T07:38:46;43.00;;;19.57;;
74689;SDS011;63221;51.860;-2.188;2023-02-15T07:41:12;43.47;;;23.20;;
74689;SDS011;63221;51.860;-2.188;2023-02-15T07:43:40;48.67;;;20.50;;
74689;SDS011;63221;51.860;-2.188;2023-02-15T07:46:11;46.58;;;21.25;;
74689;SDS011;63221;51.860;-2.188;2023-02-15T07:48:38;46.88;;;21.58;;
74689;SDS011;63221;51.860;-2.188;2023-02-15T07:51:05;43.50;;;21.58;;
74689;SDS011;63221;51.860;-2.188;2023-02-15T07:53:31;48.97;;;21.13;;
74689;SDS011;63221;51.860;-2.188;2023-02-15T07:56:00;44.50;;;20.48;;
74689;SDS011;63221;51.860;-2.188;2023-02-15T07:58:31;47.78;;;21.92;;
74689;SDS011;63221;51.860;-2.188;2023-02-15T08:01:16;43.33;;;20.67;;
74689;SDS011;63221;51.860;-2.188;2023-02-15T08:03:52;40.53;;;19.98;;
74689;SDS011;63221;51.860;-2.188;2023-02-15T08:06:19;45.25;;;21.33;;
74689;SDS011;63221;51.860;-2.188;2023-02-15T08:08:45;45.30;;;20.48;;
74689;SDS011;63221;51.860;-2.188;2023-02-15T08:14:00;48.78;;;22.73;;
74689;SDS011;63221;51.860;-2.188;2023-02-15T08:19:06;43.33;;;22.33;;
74689;SDS011;63221;51.860;-2.188;2023-02-15T08:21:32;46.63;;;21.55;;
74689;SDS011;63221;51.860;-2.188;2023-02-15T08:23:59;48.15;;;22.20;;
74689;SDS011;63221;51.860;-2.188;2023-02-15T08:26:25;45.57;;;20.37;;
74689;SDS011;63221;51.860;-2.188;2023-02-15T08:28:52;51.95;;;22.75;;
74689;SDS011;63221;51.860;-2.188;2023-02-15T08:31:17;44.50;;;21.30;;
74689;SDS011;63221;51.860;-2.188;2023-02-15T08:33:43;45.10;;;21.20;;
74689;SDS011;63221;51.860;-2.188;2023-02-15T08:36:17;46.35;;;22.17;;
74689;SDS011;63221;51.860;-2.188;2023-02-15T08:38:43;44.25;;;21.02;;
74689;SDS011;63221;51.860;-2.188;2023-02-15T08:41:13;46.70;;;21.67;;
74689;SDS011;63221;51.860;-2.188;2023-02-15T08:43:39;46.20;;;22.60;;
74689;SDS011;63221;51.860;-2.188;2023-02-15T08:46:05;50.07;;;22.33;;
74689;SDS011;63221;51.860;-2.188;2023-02-15T08:48:31;47.50;;;21.77;;
74689;SDS011;63221;51.860;-2.188;2023-02-15T08:50:57;37.90;;;20.70;;
74689;SDS011;63221;51.860;-2.188;2023-02-15T08:53:22;47.00;;;20.97;;
74689;SDS011;63221;51.860;-2.188;2023-02-15T08:55:54;45.33;;;22.83;;
74689;SDS011;63221;51.860;-2.188;2023-02-15T08:58:21;43.80;;;21.00;;
74689;SDS011;63221;51.860;-2.188;2023-02-15T09:00:46;43.47;;;20.33;;
74689;SDS011;63221;51.860;-2.188;2023-02-15T09:03:12;40.50;;;20.83;;
74689;SDS011;63221;51.860;-2.188;2023-02-15T09:05:37;44.17;;;20.83;;
74689;SDS011;63221;51.860;-2.188;2023-02-15T09:08:02;47.23;;;19.37;;
74689;SDS011;63221;51.860;-2.188;2023-02-15T09:10:28;38.77;;;18.07;;
74689;SDS011;63221;51.860;-2.188;2023-02-15T09:12:53;44.03;;;20.10;;
74689;SDS011;63221;51.860;-2.188;2023-02-15T09:15:19;38.43;;;19.07;;
74689;SDS011;63221;51.860;-2.188;2023-02-15T09:17:44;39.70;;;18.40;;
74689;SDS011;63221;51.860;-2.188;2023-02-15T09:20:09;38.55;;;18.08;;
74689;SDS011;63221;51.860;-2.188;2023-02-15T09:22:35;38.77;;;17.20;;
74689;SDS011;63221;51.860;-2.188;2023-02-15T09:25:00;36.37;;;17.97;;
74689;SDS011;63221;51.860;-2.188;2023-02-15T09:27:26;36.63;;;17.17;;
74689;SDS011;63221;51.860;-2.188;2023-02-15T09:29:51;36.50;;;16.92;;
74689;SDS011;63221;51.860;-2.188;2023-02-15T09:32:17;34.13;;;16.50;;
74689;SDS011;63221;51.860;-2.188;2023-02-15T09:34:42;35.53;;;17.70;;
74689;SDS011;63221;51.860;-2.188;2023-02-15T09:37:08;41.80;;;19.08;;
74689;SDS011;63221;51.860;-2.188;2023-02-15T09:39:33;34.33;;;17.87;;
74689;SDS011;63221;51.860;-2.188;2023-02-15T10:04:40;31.90;;;16.23;;
74689;SDS011;63221;51.860;-2.188;2023-02-15T10:12:11;29.03;;;15.93;;
74689;SDS011;63221;51.860;-2.188;2023-02-15T10:25:10;31.75;;;14.73;;
74689;SDS011;63221;51.860;-2.188;2023-02-15T10:27:48;35.05;;;14.73;;
74689;SDS011;63221;51.860;-2.188;2023-02-15T10:30:27;26.80;;;14.20;;
74689;SDS011;63221;51.860;-2.188;2023-02-15T10:33:03;27.92;;;14.05;;
74689;SDS011;63221;51.860;-2.188;2023-02-15T10:35:38;26.55;;;13.02;;
74689;SDS011;63221;51.860;-2.188;2023-02-15T10:39:02;30.42;;;14.68;;
74689;SDS011;63221;51.860;-2.188;2023-02-15T10:47:06;27.65;;;13.90;;
74689;SDS011;63221;51.860;-2.188;2023-02-15T10:52:48;31.38;;;16.23;;
74689;SDS011;63221;51.860;-2.188;2023-02-15T10:58:11;34.63;;;15.40;;
74689;SDS011;63221;51.860;-2.188;2023-02-15T11:06:19;29.88;;;14.82;;
74689;SDS011;63221;51.860;-2.188;2023-02-15T11:08:48;29.90;;;16.05;;
74689;SDS011;63221;51.860;-2.188;2023-02-15T11:13:54;33.97;;;15.75;;
74689;SDS011;63221;51.860;-2.188;2023-02-15T11:18:53;29.98;;;15.48;;
74689;SDS011;63221;51.860;-2.188;2023-02-15T11:21:26;31.80;;;16.25;;
74689;SDS011;63221;51.860;-2.188;2023-02-15T11:23:57;32.20;;;14.50;;
74689;SDS011;63221;51.860;-2.188;2023-02-15T11:26:29;30.15;;;14.65;;
74689;SDS011;63221;51.860;-2.188;2023-02-15T11:28:59;31.17;;;14.23;;
74689;SDS011;63221;51.860;-2.188;2023-02-15T11:31:41;29.25;;;13.52;;
74689;SDS011;63221;51.860;-2.188;2023-02-15T11:34:15;25.15;;;13.40;;
74689;SDS011;63221;51.860;-2.188;2023-02-15T11:36:54;29.47;;;12.83;;
74689;SDS011;63221;51.860;-2.188;2023-02-15T11:39:20;23.77;;;13.23;;
74689;SDS011;63221;51.860;-2.188;2023-02-15T11:41:47;23.13;;;12.27;;
74689;SDS011;63221;51.860;-2.188;2023-02-15T11:44:21;24.40;;;12.07;;
74689;SDS011;63221;51.860;-2.188;2023-02-15T11:46:48;22.42;;;12.07;;
74689;SDS011;63221;51.860;-2.188;2023-02-15T11:49:33;23.87;;;11.00;;
74689;SDS011;63221;51.860;-2.188;2023-02-15T11:52:06;21.15;;;10.05;;
74689;SDS011;63221;51.860;-2.188;2023-02-15T11:54:33;15.25;;;7.38;;
74689;SDS011;63221;51.860;-2.188;2023-02-15T11:57:11;13.43;;;6.75;;
74689;SDS011;63221;51.860;-2.188;2023-02-15T11:59:41;18.90;;;6.18;;
74689;SDS011;63221;51.860;-2.188;2023-02-15T12:02:15;10.37;;;6.40;;
74689;SDS011;63221;51.860;-2.188;2023-02-15T12:04:43;12.10;;;4.95;;
74689;SDS011;63221;51.860;-2.188;2023-02-15T12:07:16;11.85;;;6.03;;
74689;SDS011;63221;51.860;-2.188;2023-02-15T12:12:19;9.82;;;5.50;;
74689;SDS011;63221;51.860;-2.188;2023-02-15T12:14:47;13.30;;;5.57;;
74689;SDS011;63221;51.860;-2.188;2023-02-15T12:17:23;12.73;;;5.05;;
74689;SDS011;63221;51.860;-2.188;2023-02-15T12:20:01;10.45;;;4.72;;
74689;SDS011;63221;51.860;-2.188;2023-02-15T12:23:20;13.88;;;5.10;;
74689;SDS011;63221;51.860;-2.188;2023-02-15T12:25:40;12.10;;;5.15;;
74689;SDS011;63221;51.860;-2.188;2023-02-15T12:28:30;12.03;;;5.43;;
74689;SDS011;63221;51.860;-2.188;2023-02-15T12:31:01;10.63;;;5.75;;
74689;SDS011;63221;51.860;-2.188;2023-02-15T12:33:43;16.52;;;5.55;;
74689;SDS011;63221;51.860;-2.188;2023-02-15T12:36:26;12.50;;;5.00;;
74689;SDS011;63221;51.860;-2.188;2023-02-15T12:41:36;14.40;;;5.23;;
74689;SDS011;63221;51.860;-2.188;2023-02-15T12:46:33;8.27;;;4.47;;
74689;SDS011;63221;51.860;-2.188;2023-02-15T12:49:14;12.37;;;5.63;;
74689;SDS011;63221;51.860;-2.188;2023-02-15T12:51:43;15.52;;;5.95;;
74689;SDS011;63221;51.860;-2.188;2023-02-15T12:54:38;12.15;;;5.18;;
74689;SDS011;63221;51.860;-2.188;2023-02-15T13:02:43;10.07;;;5.50;;
74689;SDS011;63221;51.860;-2.188;2023-02-15T13:07:48;16.35;;;5.97;;
74689;SDS011;63221;51.860;-2.188;2023-02-15T13:10:37;16.63;;;5.32;;
74689;SDS011;63221;51.860;-2.188;2023-02-15T13:13:18;13.38;;;4.85;;
74689;SDS011;63221;51.860;-2.188;2023-02-15T13:15:49;12.87;;;4.83;;
74689;SDS011;63221;51.860;-2.188;2023-02-15T13:18:28;13.38;;;5.00;;
74689;SDS011;63221;51.860;-2.188;2023-02-15T13:20:54;11.02;;;5.30;;
74689;SDS011;63221;51.860;-2.188;2023-02-15T13:23:27;7.70;;;4.15;;
74689;SDS011;63221;51.860;-2.188;2023-02-15T13:25:55;8.05;;;4.90;;
74689;SDS011;63221;51.860;-2.188;2023-02-15T13:28:23;8.50;;;5.43;;
74689;SDS011;63221;51.860;-2.188;2023-02-15T13:30:51;10.32;;;5.05;;
74689;SDS011;63221;51.860;-2.188;2023-02-15T13:33:19;10.05;;;4.43;;
74689;SDS011;63221;51.860;-2.188;2023-02-15T13:36:11;12.82;;;4.85;;
74689;SDS011;63221;51.860;-2.188;2023-02-15T13:47:24;12.63;;;4.97;;
74689;SDS011;63221;51.860;-2.188;2023-02-15T13:58:07;9.63;;;5.30;;
74689;SDS011;63221;51.860;-2.188;2023-02-15T14:08:50;11.70;;;4.50;;
74689;SDS011;63221;51.860;-2.188;2023-02-15T14:32:13;9.80;;;4.93;;
74689;SDS011;63221;51.860;-2.188;2023-02-15T14:34:44;11.97;;;5.33;;
74689;SDS011;63221;51.860;-2.188;2023-02-15T14:37:14;11.93;;;4.65;;
74689;SDS011;63221;51.860;-2.188;2023-02-15T14:39:44;8.20;;;4.35;;
74689;SDS011;63221;51.860;-2.188;2023-02-15T14:42:48;16.58;;;5.20;;
74689;SDS011;63221;51.860;-2.188;2023-02-15T14:45:35;11.07;;;5.18;;
74689;SDS011;63221;51.860;-2.188;2023-02-15T14:48:28;11.70;;;5.97;;
74689;SDS011;63221;51.860;-2.188;2023-02-15T14:50:56;13.55;;;5.05;;
74689;SDS011;63221;51.860;-2.188;2023-02-15T14:58:36;13.70;;;5.17;;
74689;SDS011;63221;51.860;-2.188;2023-02-15T15:01:11;11.63;;;5.60;;
74689;SDS011;63221;51.860;-2.188;2023-02-15T15:03:42;12.07;;;5.57;;
74689;SDS011;63221;51.860;-2.188;2023-02-15T15:06:20;11.40;;;5.82;;
74689;SDS011;63221;51.860;-2.188;2023-02-15T15:08:50;12.45;;;6.40;;
74689;SDS011;63221;51.860;-2.188;2023-02-15T15:14:01;18.23;;;6.88;;
74689;SDS011;63221;51.860;-2.188;2023-02-15T15:19:03;18.85;;;6.40;;
74689;SDS011;63221;51.860;-2.188;2023-02-15T15:32:51;13.20;;;6.85;;
74689;SDS011;63221;51.860;-2.188;2023-02-15T15:49:40;15.02;;;7.80;;
74689;SDS011;63221;51.860;-2.188;2023-02-15T15:52:13;14.77;;;7.90;;
74689;SDS011;63221;51.860;-2.188;2023-02-15T15:54:41;16.63;;;7.40;;
74689;SDS011;63221;51.860;-2.188;2023-02-15T15:57:12;13.88;;;6.30;;
74689;SDS011;63221;51.860;-2.188;2023-02-15T15:59:53;18.10;;;5.77;;
74689;SDS011;63221;51.860;-2.188;2023-02-15T16:02:19;13.40;;;6.20;;
74689;SDS011;63221;51.860;-2.188;2023-02-15T16:04:45;10.18;;;5.45;;
74689;SDS011;63221;51.860;-2.188;2023-02-15T16:09:57;9.07;;;4.68;;
74689;SDS011;63221;51.860;-2.188;2023-02-15T16:12:29;10.32;;;4.88;;
74689;SDS011;63221;51.860;-2.188;2023-02-15T16:14:56;10.95;;;5.05;;
74689;SDS011;63221;51.860;-2.188;2023-02-15T16:17:23;10.30;;;4.47;;
74689;SDS011;63221;51.860;-2.188;2023-02-15T16:19:49;7.95;;;4.07;;
74689;SDS011;63221;51.860;-2.188;2023-02-15T16:22:20;7.80;;;3.97;;
74689;SDS011;63221;51.860;-2.188;2023-02-15T16:25:01;8.57;;;3.90;;
74689;SDS011;63221;51.860;-2.188;2023-02-15T16:27:50;11.00;;;4.55;;
74689;SDS011;63221;51.860;-2.188;2023-02-15T16:30:32;9.20;;;4.35;;
74689;SDS011;63221;51.860;-2.188;2023-02-15T16:33:12;8.52;;;4.70;;
74689;SDS011;63221;51.860;-2.188;2023-02-15T16:35:56;10.43;;;5.32;;
74689;SDS011;63221;51.860;-2.188;2023-02-15T16:41:07;13.77;;;6.93;;
74689;SDS011;63221;51.860;-2.188;2023-02-15T16:43:40;12.48;;;6.55;;
74689;SDS011;63221;51.860;-2.188;2023-02-15T16:46:09;13.20;;;7.03;;
74689;SDS011;63221;51.860;-2.188;2023-02-15T16:48:39;15.00;;;7.68;;
74689;SDS011;63221;51.860;-2.188;2023-02-15T16:51:07;10.60;;;6.40;;
74689;SDS011;63221;51.860;-2.188;2023-02-15T16:53:33;13.05;;;7.03;;
74689;SDS011;63221;51.860;-2.188;2023-02-15T16:56:00;14.20;;;6.70;;
74689;SDS011;63221;51.860;-2.188;2023-02-15T16:58:35;13.77;;;7.40;;
74689;SDS011;63221;51.860;-2.188;2023-02-15T17:01:02;12.57;;;6.97;;
74689;SDS011;63221;51.860;-2.188;2023-02-15T17:03:31;13.45;;;8.38;;
74689;SDS011;63221;51.860;-2.188;2023-02-15T17:05:58;16.73;;;7.23;;
74689;SDS011;63221;51.860;-2.188;2023-02-15T17:16:43;13.07;;;6.40;;
74689;SDS011;63221;51.860;-2.188;2023-02-15T17:19:17;14.32;;;7.85;;
74689;SDS011;63221;51.860;-2.188;2023-02-15T17:21:55;13.50;;;6.70;;
74689;SDS011;63221;51.860;-2.188;2023-02-15T17:24:28;12.52;;;6.85;;
74689;SDS011;63221;51.860;-2.188;2023-02-15T17:27:28;14.05;;;7.88;;
74689;SDS011;63221;51.860;-2.188;2023-02-15T17:29:57;13.10;;;7.27;;
74689;SDS011;63221;51.860;-2.188;2023-02-15T17:32:25;17.27;;;8.48;;
74689;SDS011;63221;51.860;-2.188;2023-02-15T17:37:31;16.35;;;9.65;;
74689;SDS011;63221;51.860;-2.188;2023-02-15T17:42:47;14.57;;;8.67;;
74689;SDS011;63221;51.860;-2.188;2023-02-15T17:45:13;16.10;;;8.65;;
74689;SDS011;63221;51.860;-2.188;2023-02-15T17:47:39;16.90;;;8.70;;
74689;SDS011;63221;51.860;-2.188;2023-02-15T17:50:05;18.70;;;10.60;;
74689;SDS011;63221;51.860;-2.188;2023-02-15T17:52:31;19.27;;;10.32;;
74689;SDS011;63221;51.860;-2.188;2023-02-15T17:54:56;17.30;;;10.50;;
74689;SDS011;63221;51.860;-2.188;2023-02-15T17:57:40;20.75;;;9.15;;
74689;SDS011;63221;51.860;-2.188;2023-02-15T18:00:06;18.07;;;11.00;;